Veteran, Canada
Current Conditions -  °F | °C
As of 9:00 AM on Tuesday 27 Jan 2015 (Local Time) from CYKY Reporting Station
Broken Clouds Broken Clouds  
Wind Chill: 19°   Ceiling: 26000
Heat Index: 28°   Visibility: 15mi
Dew Point: 25°   Wind: 10mph
Humidity: 86%   Direction: 50°NE
Pressure: 29.79"   Gusts: NA
Location:  52°N, 111.12°W
Report Text: CYKY 271600Z 05009KT 15SM FEW050 SCT090 BKN260 M02/M04 A2979 RMK SC2AC1CI4 SLP116
Loading
Personal Weather Stations






























Interactive Weather Map New forecast layout! Learn more

10-Day Weather Forecast

Advertisements
Track Severe Weather on mobile